Clive, New Zealand
Current Conditions -  °F | °C
As of 8:30 PM on Saturday 29 Nov 2014 (Local Time) from NZWN Reporting Station
Clear Clear  
Wind Chill: 59°   Ceiling: Unl
Heat Index: 59°   Visibility: 6mi
Dew Point: 43°   Wind: 24mph
Humidity: 55%   Direction: 360°N
Pressure: 29.65"   Gusts: 36mph
Location:  39.58°S, 176.91°E
Report Text: NZWN 290830Z AUTO 36021G31KT 9999 NCD 15/06 Q1004 NOSIG
Loading
Personal Weather Stations






























Interactive Weather Map New forecast layout! Learn more

10-Day Weather Forecast

Advertisements
Track Severe Weather on mobile